Time;durP1;ratioP1;P1;durP2;ratioP2;P2;SDS_P1;SDS_P2;PMS_P1;PMS_P2;Temp;Humidity;BMP_temperature;BMP_pressure;BME280_temperature;BME280_humidity;BME280_pressure;Samples;Min_cycle;Max_cycle;Signal;HPM_P1;HPM_P2
2022/05/12 09:53:33;;;;;;;32.83;27.60;;;;;;;25.17;28.73;99823.28;5167237;23;20050;-91
2022/05/12 09:56:07;;;;;;;3.95;2.95;;;;;;;25.23;28.32;99810.03;4967310;28;20043;-92
2022/05/12 09:58:41;;;;;;;5.82;2.83;;;;;;;25.25;28.35;99812.44;4985596;28;20168;-91
2022/05/12 10:01:23;;;;;;;9.10;3.75;;;;;;;25.26;27.82;99814.84;4982423;28;20034;-91
2022/05/12 10:10:13;;;;;;;5.10;2.90;;;;;;;25.51;25.65;99811.88;4905066;29;20435;-88
2022/05/12 10:12:46;;;;;;;4.97;2.90;;;;;;;25.63;25.65;99816.47;4888933;29;20037;-90
2022/05/12 10:15:22;;;;;;;6.93;2.75;;;;;;;25.64;25.55;99824.38;4939051;28;20109;-90
2022/05/12 10:17:55;;;;;;;5.53;2.95;;;;;;;25.58;25.99;99796.28;4978323;28;20096;-91
2022/05/12 10:20:24;;;;;;;8.32;3.35;;;;;;;25.63;26.01;99795.22;4980784;28;20037;-94
2022/05/12 10:22:55;;;;;;;11.55;3.22;;;;;;;25.90;26.74;99815.56;4993922;28;20029;-93
2022/05/12 10:25:47;;;;;;;9.27;2.92;;;;;;;26.09;26.54;99809.25;4997006;28;20038;-89
2022/05/12 10:28:23;;;;;;;7.03;3.50;;;;;;;26.21;26.61;99800.81;4999008;28;20038;-93
2022/05/12 10:31:23;;;;;;;5.60;3.00;;;;;;;26.40;25.96;99802.78;4968698;28;20045;-94
2022/05/12 10:34:23;;;;;;;5.15;2.78;;;;;;;26.54;26.35;99806.97;4982599;28;20030;-94
2022/05/12 10:37:15;;;;;;;5.70;3.10;;;;;;;26.38;24.76;99769.19;4983538;28;20085;-93
2022/05/12 10:40:17;;;;;;;7.18;2.72;;;;;;;26.71;24.56;99792.72;4983886;28;20065;-94
2022/05/12 10:42:46;;;;;;;5.63;2.28;;;;;;;26.71;24.28;99795.50;4978478;28;20476;-93
2022/05/12 10:45:27;;;;;;;9.07;2.75;;;;;;;26.59;24.38;99770.81;4984261;28;20137;-94
2022/05/12 10:48:12;;;;;;;11.88;7.28;;;;;;;26.77;24.13;99784.91;5019160;28;20057;-93
2022/05/12 10:51:01;;;;;;;5.45;2.08;;;;;;;26.77;23.06;99779.38;5009971;28;20031;-91
2022/05/12 11:05:18;;;;;;;3.92;2.45;;;;;;;26.40;23.20;99775.16;5018322;28;20052;-94
2022/05/12 11:14:48;;;;;;;5.38;2.38;;;;;;;26.36;23.41;99743.13;4964142;29;20106;-93
2022/05/12 11:17:20;;;;;;;4.75;2.60;;;;;;;26.34;23.86;99737.19;4925997;29;20039;-90
2022/05/12 11:19:55;;;;;;;7.85;3.10;;;;;;;26.44;24.38;99733.81;4941214;29;20039;-95
2022/05/12 11:22:36;;;;;;;4.88;3.00;;;;;;;26.65;23.55;99747.22;4929146;29;20135;-93
2022/05/12 11:25:19;;;;;;;6.70;2.55;;;;;;;26.60;23.39;99742.00;4942098;29;20046;-93
2022/05/12 11:31:32;;;;;;;5.88;2.50;;;;;;;26.64;23.02;99733.78;5015680;28;20033;-90
2022/05/12 11:34:08;;;;;;;7.70;2.83;;;;;;;26.53;22.47;99717.78;4991713;28;20089;-89
2022/05/12 11:36:44;;;;;;;5.03;1.60;;;;;;;26.61;21.34;99718.75;4993391;28;20041;-89
2022/05/12 11:39:50;;;;;;;2.35;1.60;;;;;;;26.66;20.29;99735.00;4964827;28;20034;-89
2022/05/12 11:42:21;;;;;;;4.30;1.70;;;;;;;26.64;20.03;99723.53;4993828;28;20046;-90
2022/05/12 11:44:57;;;;;;;5.22;2.30;;;;;;;26.69;20.10;99711.38;4963455;28;20109;-91
2022/05/12 11:48:13;;;;;;;4.32;2.50;;;;;;;26.82;20.56;99723.84;4996076;28;20069;-86
2022/05/12 11:51:01;;;;;;;4.57;1.80;;;;;;;26.90;20.34;99708.97;4958773;28;20030;-89
2022/05/12 11:53:31;;;;;;;3.60;1.60;;;;;;;26.92;17.69;99708.59;5000895;28;20021;-87
2022/05/12 11:56:05;;;;;;;5.53;2.63;;;;;;;26.91;18.38;99698.69;4988470;28;20035;-93
2022/05/12 11:58:43;;;;;;;7.75;1.73;;;;;;;26.90;18.75;99688.84;4969076;28;20129;-95
2022/05/12 12:01:37;;;;;;;4.38;2.08;;;;;;;26.81;18.28;99692.66;4989771;28;20030;-92
2022/05/12 12:04:03;;;;;;;6.43;2.05;;;;;;;26.79;18.88;99675.66;4975636;28;20031;-93
2022/05/12 12:06:45;;;;;;;3.25;1.70;;;;;;;26.89;19.29;99684.47;4943910;28;20030;-95
2022/05/12 12:09:27;;;;;;;6.68;4.68;;;;;;;26.96;21.06;99681.81;4990094;28;20038;-91
2022/05/12 12:11:53;;;;;;;8.27;4.35;;;;;;;26.81;22.44;99642.91;4998235;28;20042;-93
2022/05/12 12:14:47;;;;;;;6.88;2.55;;;;;;;26.94;21.61;99673.09;4991719;28;20549;-92
2022/05/12 12:17:32;;;;;;;18.25;5.70;;;;;;;27.07;21.72;99673.69;5010551;28;20105;-92
2022/05/12 12:20:09;;;;;;;7.25;2.45;;;;;;;27.21;21.82;99671.13;5008402;28;20121;-91
2022/05/12 12:22:37;;;;;;;4.72;1.92;;;;;;;27.26;20.96;99668.06;4978092;28;20034;-91
2022/05/12 12:25:23;;;;;;;5.35;2.00;;;;;;;27.22;20.40;99653.34;4993404;28;20031;-92
2022/05/12 12:28:27;;;;;;;8.57;2.40;;;;;;;27.47;21.06;99664.78;4988925;28;20038;-89
2022/05/12 12:30:53;;;;;;;10.52;3.22;;;;;;;27.58;21.25;99659.38;4997406;28;20484;-91
2022/05/12 12:33:59;;;;;;;4.60;1.90;;;;;;;27.51;20.45;99637.94;4996840;28;20033;-92
2022/05/12 12:36:54;;;;;;;5.07;2.17;;;;;;;27.77;20.94;99653.69;4982326;28;20053;-93
2022/05/12 12:39:40;;;;;;;6.38;2.47;;;;;;;27.65;20.78;99634.56;4984506;28;20032;-93
2022/05/12 12:42:28;;;;;;;5.13;1.80;;;;;;;27.88;20.06;99658.56;4982724;28;20041;-94
2022/05/12 12:45:04;;;;;;;4.45;2.72;;;;;;;27.95;20.38;99645.63;4980641;28;20034;-93
2022/05/12 12:47:40;;;;;;;4.68;2.15;;;;;;;28.09;20.96;99647.72;4996659;28;20656;-93
2022/05/12 12:50:19;;;;;;;8.35;3.20;;;;;;;28.08;20.64;99621.22;4963946;28;20046;-94
2022/05/12 12:52:47;;;;;;;10.65;3.72;;;;;;;28.19;20.80;99621.31;4981807;28;20614;-94
2022/05/12 12:58:35;;;;;;;8.25;2.63;;;;;;;28.58;20.73;99640.28;4967269;28;20049;-93
2022/05/12 13:01:03;;;;;;;12.82;3.00;;;;;;;28.50;20.46;99625.56;4961968;28;20034;-92
2022/05/12 13:03:33;;;;;;;5.32;1.80;;;;;;;28.55;19.17;99610.56;4962568;28;20031;-91
2022/05/12 13:06:11;;;;;;;6.40;2.17;;;;;;;28.58;20.07;99607.81;4962994;28;20472;-94
2022/05/12 13:08:37;;;;;;;6.43;2.15;;;;;;;28.42;20.25;99604.50;4945367;28;20034;-95
2022/05/12 13:11:04;;;;;;;6.55;4.63;;;;;;;28.60;20.33;99602.69;4944802;28;20505;-93
2022/05/12 13:13:31;;;;;;;6.22;2.17;;;;;;;28.66;20.33;99594.81;4948535;28;20035;-96
2022/05/12 13:16:03;;;;;;;8.50;3.35;;;;;;;28.81;20.27;99602.03;4966656;28;20042;-94
2022/05/12 13:21:43;;;;;;;6.18;1.98;;;;;;;29.02;19.57;99589.47;4970390;28;20475;-96
2022/05/12 13:24:27;;;;;;;6.43;2.00;;;;;;;29.15;18.80;99581.66;4950067;28;20397;-92
2022/05/12 13:26:55;;;;;;;6.03;1.90;;;;;;;29.41;18.66;99573.03;4964748;28;20025;-93
2022/05/12 13:29:27;;;;;;;3.55;1.52;;;;;;;29.58;18.57;99567.94;4955825;28;20385;-93
2022/05/12 13:32:06;;;;;;;6.60;1.92;;;;;;;29.86;18.98;99572.75;4966642;28;20038;-93
2022/05/12 13:34:40;;;;;;;6.30;2.28;;;;;;;30.09;18.66;99582.72;4972513;28;20038;-95
2022/05/12 13:37:24;;;;;;;10.05;2.38;;;;;;;30.23;18.54;99571.59;4984405;28;20042;-93
2022/05/12 13:39:53;;;;;;;3.67;1.60;;;;;;;30.43;17.62;99594.25;4982636;28;20034;-94
2022/05/12 13:45:58;;;;;;;3.58;2.15;;;;;;;30.79;16.72;99567.19;5157645;23;20041;-96
2022/05/12 13:48:28;;;;;;;11.27;3.53;;;;;;;30.93;17.00;99562.81;4970175;28;20072;-93
2022/05/12 13:50:58;;;;;;;6.82;3.22;;;;;;;31.34;16.10;99579.75;5011269;28;20468;-95
2022/05/12 13:53:33;;;;;;;4.53;2.38;;;;;;;31.67;16.25;99569.28;4994545;28;20048;-96
2022/05/12 13:56:10;;;;;;;6.85;2.25;;;;;;;31.88;16.26;99564.78;4993136;28;20407;-94
2022/05/12 13:58:50;;;;;;;8.18;2.55;;;;;;;32.06;16.54;99554.28;4990014;28;20038;-95
2022/05/12 14:01:50;;;;;;;16.90;4.35;;;;;;;32.49;16.42;99567.06;4978144;28;20105;-96
2022/05/12 14:04:35;;;;;;;8.00;3.90;;;;;;;32.43;15.55;99539.63;4990117;28;20090;-94
2022/05/12 14:07:28;;;;;;;11.63;3.47;;;;;;;32.67;15.28;99564.13;4979223;28;20464;-96
2022/05/12 14:10:04;;;;;;;9.25;2.80;;;;;;;32.97;15.37;99555.03;4978337;28;20042;-95
2022/05/12 14:19:13;;;;;;;23.20;4.75;;;;;;;33.18;15.17;99540.03;4969949;28;20026;-91
2022/05/12 14:20:47;;;;;;;11.43;2.80;;;;;;;33.78;14.29;99541.19;4974690;28;20041;-94
2022/05/12 14:23:13;;;;;;;4.10;1.67;;;;;;;34.05;14.07;99532.00;4968000;28;20037;-94
2022/05/12 14:26:12;;;;;;;5.95;1.90;;;;;;;34.49;13.56;99532.88;4973378;28;20034;-95
2022/05/12 14:28:44;;;;;;;9.90;6.22;;;;;;;34.93;13.56;99530.06;4951565;28;20031;-95
2022/05/12 14:31:10;;;;;;;8.38;2.70;;;;;;;35.11;14.03;99526.84;4986659;28;20042;-91
2022/05/12 14:34:09;;;;;;;5.45;2.22;;;;;;;35.63;13.24;99540.13;4975419;28;20030;-90
2022/05/12 14:36:35;;;;;;;17.13;3.28;;;;;;;35.76;13.21;99545.88;4959342;28;20547;-89
2022/05/12 14:39:04;;;;;;;9.43;3.08;;;;;;;35.91;12.79;99524.69;4923684;29;20135;-89
2022/05/12 14:41:53;;;;;;;8.38;3.20;;;;;;;36.37;12.52;99541.56;4942260;29;20046;-90
2022/05/12 14:44:22;;;;;;;18.20;2.67;;;;;;;36.48;12.25;99542.06;4942325;28;20546;-93
2022/05/12 14:46:55;;;;;;;80.30;43.47;;;;;;;36.68;11.63;99525.13;4942932;28;20047;-91
2022/05/12 14:49:37;;;;;;;13.30;5.55;;;;;;;36.90;11.87;99539.34;4958670;28;20034;-90
2022/05/12 14:52:04;;;;;;;50.25;30.45;;;;;;;36.34;12.63;99531.22;4940028;28;20134;-91
2022/05/12 14:54:30;;;;;;;7.57;3.65;;;;;;;36.90;12.61;99539.34;4940931;29;20039;-90
2022/05/12 14:56:56;;;;;;;6.72;2.33;;;;;;;37.02;12.13;99534.97;4942926;28;20119;-92
2022/05/12 14:59:25;;;;;;;6.20;2.58;;;;;;;36.64;12.11;99534.88;4939463;29;20129;-91
2022/05/12 15:01:51;;;;;;;5.30;2.50;;;;;;;36.83;11.82;99538.75;4970478;28;20050;-93
2022/05/12 15:04:19;;;;;;;6.72;1.75;;;;;;;36.75;11.72;99518.53;4985210;28;20133;-90
2022/05/12 15:06:45;;;;;;;4.25;2.53;;;;;;;36.61;12.21;99528.91;5005358;28;20046;-91
2022/05/12 15:09:12;;;;;;;7.95;1.92;;;;;;;35.58;14.22;99519.03;4994546;28;20492;-89
2022/05/12 15:11:38;;;;;;;2.25;1.60;;;;;;;35.16;14.45;99529.19;4995198;28;20062;-90
2022/05/12 15:14:04;;;;;;;9.18;3.20;;;;;;;35.01;14.92;99525.84;5001134;28;20058;-90
2022/05/12 15:16:30;;;;;;;11.50;3.25;;;;;;;34.67;14.99;99520.56;4994242;28;20476;-90
2022/05/12 15:18:56;;;;;;;5.10;1.98;;;;;;;34.13;15.81;99518.72;4977544;28;20035;-92
2022/05/12 15:21:21;;;;;;;7.13;2.40;;;;;;;33.66;15.99;99511.09;4994241;28;20034;-90
2022/05/12 15:23:47;;;;;;;7.00;2.10;;;;;;;33.38;16.43;99515.84;4978310;28;20027;-91
2022/05/12 15:26:18;;;;;;;9.68;2.97;;;;;;;33.16;17.35;99539.66;4993397;28;20019;-89
2022/05/12 15:28:44;;;;;;;7.72;2.60;;;;;;;32.62;17.50;99523.53;4994132;28;20511;-90
2022/05/12 15:31:10;;;;;;;6.10;2.88;;;;;;;32.12;17.72;99513.63;4996616;28;20034;-91
2022/05/12 15:33:35;;;;;;;7.93;3.70;;;;;;;31.43;18.11;99512.50;4978691;28;20121;-93
2022/05/12 15:36:01;;;;;;;7.53;3.33;;;;;;;31.05;18.68;99514.31;4994221;28;20034;-91
2022/05/12 15:38:26;;;;;;;12.20;3.03;;;;;;;30.79;20.00;99508.00;4993410;28;20041;-92
2022/05/12 15:40:52;;;;;;;29.83;17.15;;;;;;;30.51;19.65;99512.47;4977504;28;20052;-91
2022/05/12 15:43:20;;;;;;;19.23;6.65;;;;;;;30.27;20.31;99530.72;4980107;28;20508;-91
2022/05/12 15:45:46;;;;;;;14.20;9.68;;;;;;;29.61;20.44;99500.53;4996747;28;20061;-90
2022/05/12 15:48:13;;;;;;;12.43;5.38;;;;;;;29.31;21.10;99518.31;4995942;28;20060;-92
2022/05/12 15:50:39;;;;;;;12.45;6.15;;;;;;;29.09;21.07;99513.84;4996926;28;20133;-89
2022/05/12 15:53:05;;;;;;;6.95;2.67;;;;;;;28.58;21.36;99510.06;4996237;28;20045;-91
2022/05/12 15:55:32;;;;;;;7.20;2.40;;;;;;;28.37;22.29;99541.94;4979725;28;20518;-92
2022/05/12 15:58:01;;;;;;;5.65;2.08;;;;;;;28.11;22.36;99537.38;5009110;28;20045;-92
2022/05/12 16:00:31;;;;;;;12.38;7.68;;;;;;;27.92;22.30;99546.72;4979891;28;20037;-90
2022/05/12 16:02:56;;;;;;;15.55;9.38;;;;;;;27.67;22.63;99512.47;4995723;28;20096;-93
2022/05/12 16:05:22;;;;;;;7.20;3.13;;;;;;;27.50;23.23;99528.50;5013660;28;20048;-90
2022/05/12 16:07:47;;;;;;;11.02;4.10;;;;;;;27.35;23.46;99523.97;5009671;28;20034;-91
2022/05/12 16:10:13;;;;;;;8.82;3.30;;;;;;;27.23;23.70;99535.28;4980131;28;20068;-89
2022/05/12 16:13:02;;;;;;;57.30;17.42;;;;;;;26.92;24.17;99513.19;4964764;28;20065;-95
2022/05/12 16:15:30;;;;;;;7.47;2.95;;;;;;;26.77;24.30;99516.91;4986687;28;20037;-92
2022/05/12 16:17:56;;;;;;;8.95;3.40;;;;;;;26.72;24.74;99523.56;4988800;28;20126;-96
2022/05/12 16:20:22;;;;;;;7.10;2.45;;;;;;;26.54;25.14;99520.56;4989425;28;20105;-96
2022/05/12 16:22:53;;;;;;;7.53;2.45;;;;;;;26.34;25.57;99519.84;4989345;28;20038;-95
2022/05/12 16:25:22;;;;;;;6.47;2.45;;;;;;;26.37;25.75;99541.19;5005176;28;20073;-96
2022/05/12 16:28:09;;;;;;;6.15;2.33;;;;;;;26.07;25.58;99513.50;4989345;28;20040;-93
2022/05/12 16:30:35;;;;;;;9.40;2.50;;;;;;;26.11;25.32;99524.63;5005997;28;20049;-95
2022/05/12 16:33:00;;;;;;;7.32;2.67;;;;;;;26.07;25.78;99532.84;4988150;28;20049;-95
2022/05/12 16:35:26;;;;;;;7.90;2.65;;;;;;;25.94;25.82;99517.63;4985987;28;20037;-93
2022/05/12 16:37:52;;;;;;;6.63;2.50;;;;;;;25.76;25.78;99515.34;4982266;28;20037;-93
2022/05/12 16:40:18;;;;;;;10.02;2.78;;;;;;;25.69;26.27;99508.88;4998550;28;20049;-93
2022/05/12 16:42:43;;;;;;;6.55;2.40;;;;;;;25.70;26.42;99522.31;4998010;28;20053;-93
2022/05/12 16:45:09;;;;;;;10.52;3.45;;;;;;;25.59;27.02;99516.63;4980799;28;20072;-94
2022/05/12 16:47:35;;;;;;;6.88;4.07;;;;;;;25.50;26.61;99521.53;4997490;28;20080;-94
2022/05/12 16:50:00;;;;;;;8.25;3.13;;;;;;;25.40;26.99;99516.63;4996847;28;20037;-94
2022/05/12 16:52:26;;;;;;;16.77;3.72;;;;;;;25.31;27.40;99516.06;4980415;28;20034;-94
2022/05/12 16:54:57;;;;;;;11.63;3.80;;;;;;;25.34;27.88;99520.88;4980769;28;20083;-96
2022/05/12 16:57:26;;;;;;;12.85;5.00;;;;;;;25.26;28.46;99513.63;4983983;28;20030;-94
2022/05/12 16:59:52;;;;;;;26.77;5.63;;;;;;;25.11;29.04;99518.81;4982085;28;20044;-94
2022/05/12 17:02:18;;;;;;;15.13;4.68;;;;;;;25.12;29.22;99531.41;4980646;28;20034;-94
2022/05/12 17:04:44;;;;;;;23.30;5.90;;;;;;;25.06;29.91;99523.81;4997574;28;20038;-94
2022/05/12 17:07:10;;;;;;;21.98;5.40;;;;;;;25.01;30.07;99528.44;4980534;28;20037;-95
2022/05/12 17:09:36;;;;;;;14.52;4.80;;;;;;;24.86;30.58;99525.75;4980772;28;20038;-95
2022/05/12 17:12:02;;;;;;;15.35;4.88;;;;;;;24.74;30.12;99513.72;4980487;28;20044;-93
2022/05/12 17:14:28;;;;;;;12.25;5.00;;;;;;;24.70;30.45;99520.31;4981394;28;20033;-94
2022/05/12 17:16:54;;;;;;;19.08;5.22;;;;;;;24.59;30.22;99523.63;4980477;28;20045;-93
2022/05/12 17:19:20;;;;;;;14.02;4.80;;;;;;;24.44;30.98;99521.66;4996370;28;20038;-93
2022/05/12 17:21:45;;;;;;;14.02;4.50;;;;;;;24.42;31.17;99532.22;4980234;28;20034;-93
2022/05/12 17:24:11;;;;;;;12.75;4.18;;;;;;;24.20;31.00;99520.72;4980295;28;20457;-95
2022/05/12 17:26:36;;;;;;;14.68;4.25;;;;;;;24.14;31.40;99527.66;4997251;28;20045;-93
2022/05/12 17:29:02;;;;;;;18.73;4.63;;;;;;;24.01;31.91;99523.41;4980423;28;20137;-94
2022/05/12 17:31:28;;;;;;;10.57;4.13;;;;;;;23.96;31.84;99542.91;4996304;28;20057;-94
2022/05/12 17:33:53;;;;;;;16.00;4.25;;;;;;;23.93;32.40;99549.13;4980760;28;20060;-93
2022/05/12 17:36:19;;;;;;;9.65;4.00;;;;;;;23.86;33.03;99548.94;4979705;28;20077;-90
2022/05/12 17:38:47;;;;;;;12.68;4.45;;;;;;;23.76;33.49;99561.22;4981875;28;20474;-93
2022/05/12 17:41:12;;;;;;;19.08;4.22;;;;;;;23.51;33.77;99541.28;4996218;28;20085;-93
2022/05/12 17:43:40;;;;;;;20.85;4.43;;;;;;;23.49;34.32;99558.16;4979968;28;20511;-93
2022/05/12 17:46:11;;;;;;;12.63;4.72;;;;;;;23.45;34.33;99567.44;4980934;28;20038;-93
2022/05/12 17:48:37;;;;;;;13.20;4.63;;;;;;;23.24;34.12;99545.66;4981651;28;20032;-94
2022/05/12 17:51:03;;;;;;;10.50;3.60;;;;;;;23.22;34.04;99553.44;4980046;28;20045;-94
2022/05/12 17:53:29;;;;;;;4.75;3.22;;;;;;;23.14;33.51;99557.97;4995635;28;20034;-91
2022/05/12 17:55:54;;;;;;;15.48;4.28;;;;;;;22.98;34.70;99553.16;4977993;28;20091;-94
2022/05/12 17:58:22;;;;;;;11.18;4.03;;;;;;;23.10;34.64;99573.53;4978784;28;20038;-90
2022/05/12 18:00:48;;;;;;;16.38;4.25;;;;;;;22.99;34.67;99567.66;4977827;28;20037;-90
2022/05/12 18:03:14;;;;;;;10.52;5.63;;;;;;;22.79;36.00;99572.19;4997068;28;20033;-94
2022/05/12 18:05:40;;;;;;;10.93;5.60;;;;;;;22.63;35.66;99561.09;4997963;28;20123;-94
2022/05/12 18:08:11;;;;;;;18.02;5.80;;;;;;;22.62;35.88;99576.00;4981456;28;20038;-93
2022/05/12 18:10:38;;;;;;;11.25;4.00;;;;;;;22.64;36.01;99581.09;4981009;28;20042;-94
2022/05/12 18:13:04;;;;;;;7.85;3.67;;;;;;;22.53;35.58;99578.81;4982251;28;20068;-94
2022/05/12 18:15:30;;;;;;;6.57;4.80;;;;;;;22.42;35.90;99571.41;4997907;28;20037;-94
2022/05/12 18:17:56;;;;;;;7.32;3.75;;;;;;;22.58;35.11;99600.56;4983341;28;20041;-94
2022/05/12 18:20:23;;;;;;;19.55;4.65;;;;;;;22.48;35.65;99595.53;4998675;28;20033;-94
2022/05/12 18:22:49;;;;;;;19.23;5.40;;;;;;;22.18;36.00;99565.56;4998691;28;20125;-93
2022/05/12 18:25:15;;;;;;;9.45;4.90;;;;;;;22.29;36.61;99596.09;4997919;28;20581;-93
2022/05/12 18:27:40;;;;;;;22.80;5.93;;;;;;;22.29;36.41;99601.59;4998334;28;20096;-94
2022/05/12 18:30:07;;;;;;;19.92;5.38;;;;;;;22.23;37.13;99602.94;4981831;28;20121;-94
2022/05/12 18:32:33;;;;;;;15.35;5.05;;;;;;;22.05;37.48;99591.34;4997481;28;20042;-94
2022/05/12 18:34:59;;;;;;;13.60;5.18;;;;;;;21.99;37.37;99590.75;4997500;28;20127;-94
2022/05/12 18:37:25;;;;;;;11.70;5.10;;;;;;;21.90;37.33;99576.34;4998153;28;20124;-93
2022/05/12 18:39:51;;;;;;;13.95;4.75;;;;;;;22.01;37.87;99617.84;4997692;28;20038;-90
2022/05/12 18:42:17;;;;;;;9.65;4.03;;;;;;;21.95;37.36;99598.06;4997695;28;20128;-93
2022/05/12 18:45:54;;;;;;;13.07;4.38;;;;;;;21.95;37.81;99610.97;5079689;27;1451329;-95
2022/05/12 18:48:19;;;;;;;8.73;4.75;;;;;;;21.92;37.59;99622.63;5097346;28;20035;-94
2022/05/12 18:50:45;;;;;;;9.10;3.85;;;;;;;21.82;37.37;99614.81;5079917;28;20056;-94
2022/05/12 18:53:10;;;;;;;17.95;4.97;;;;;;;21.73;37.90;99612.19;5096479;28;20369;-95
2022/05/12 18:55:37;;;;;;;10.52;3.85;;;;;;;21.70;37.76;99618.31;5079679;28;20079;-94
2022/05/12 18:58:07;;;;;;;14.45;4.65;;;;;;;21.69;37.64;99625.75;5096505;28;20401;-96
2022/05/12 19:00:33;;;;;;;9.75;4.55;;;;;;;21.69;38.16;99627.69;5079837;28;20047;-95
2022/05/12 19:02:59;;;;;;;6.93;3.35;;;;;;;21.62;37.97;99628.22;5096864;28;20024;-95
2022/05/12 19:05:25;;;;;;;7.05;3.58;;;;;;;21.56;37.90;99624.91;5079362;28;20491;-94
2022/05/12 19:07:51;;;;;;;9.20;3.20;;;;;;;21.54;37.84;99620.88;5079212;28;20023;-94
2022/05/12 19:10:18;;;;;;;7.32;3.22;;;;;;;21.56;37.95;99624.91;5079850;28;20077;-93
2022/05/12 19:12:43;;;;;;;58.63;11.90;;;;;;;21.49;39.53;99629.31;5079197;28;20019;-94
2022/05/12 19:15:17;;;;;;;82.88;31.85;;;;;;;21.26;41.54;99637.03;5079139;28;20084;-95
2022/05/12 19:17:44;;;;;;;43.08;17.00;;;;;;;21.17;41.33;99635.16;5080181;28;20023;-94
2022/05/12 19:20:15;;;;;;;27.70;10.40;;;;;;;21.22;39.91;99630.63;5079298;28;20023;-95
2022/05/12 19:22:40;;;;;;;29.70;13.43;;;;;;;21.07;41.01;99627.34;5079794;28;20112;-95
2022/05/12 19:25:08;;;;;;;29.20;11.57;;;;;;;20.95;41.76;99630.78;5079655;28;20175;-95
2022/05/12 19:27:33;;;;;;;15.30;5.47;;;;;;;21.03;39.89;99633.81;5080155;28;20034;-95
2022/05/12 19:29:59;;;;;;;10.05;3.83;;;;;;;21.02;39.35;99638.47;5079391;28;20027;-94
2022/05/12 19:32:26;;;;;;;19.42;4.32;;;;;;;21.01;39.81;99638.81;5079113;28;20019;-95
2022/05/12 19:34:52;;;;;;;11.23;3.72;;;;;;;20.94;39.02;99631.13;5095579;28;20084;-94
2022/05/12 19:37:19;;;;;;;10.38;3.50;;;;;;;20.94;39.04;99637.41;5079264;28;20019;-94
2022/05/12 19:39:45;;;;;;;6.35;3.13;;;;;;;20.93;39.05;99635.00;5079052;28;20015;-94
2022/05/12 19:42:10;;;;;;;20.55;4.47;;;;;;;20.91;39.12;99640.00;5078460;28;20046;-94
2022/05/12 19:44:36;;;;;;;14.73;3.72;;;;;;;20.91;38.87;99642.72;5095807;28;20086;-94
2022/05/12 19:47:02;;;;;;;15.00;3.53;;;;;;;20.91;38.73;99634.50;5078580;28;20023;-95
2022/05/12 19:49:27;;;;;;;6.03;3.50;;;;;;;20.97;39.11;99638.66;5078559;28;20023;-95
2022/05/12 19:51:53;;;;;;;9.25;3.33;;;;;;;20.95;38.97;99635.47;5078657;28;20459;-95
2022/05/12 19:54:18;;;;;;;7.90;3.40;;;;;;;20.89;38.80;99632.09;5078404;28;20019;-92
2022/05/12 19:56:45;;;;;;;5.60;2.92;;;;;;;20.85;38.71;99627.63;5083920;28;20027;-92
2022/05/12 19:59:10;;;;;;;6.75;3.40;;;;;;;20.77;38.72;99621.06;5064333;28;20024;-92
2022/05/12 20:01:36;;;;;;;5.18;2.50;;;;;;;20.86;38.99;99630.03;5081432;28;20590;-93
2022/05/12 20:04:02;;;;;;;9.43;3.45;;;;;;;20.84;38.98;99635.03;5081440;28;20024;-92
2022/05/12 20:06:31;;;;;;;4.70;2.90;;;;;;;20.71;39.05;99625.13;5081357;28;20453;-93
2022/05/12 20:08:56;;;;;;;16.02;6.35;;;;;;;20.64;42.07;99628.38;5082372;28;20094;-91
2022/05/12 20:11:23;;;;;;;14.20;7.28;;;;;;;20.56;43.19;99646.41;5081383;28;20043;-92
2022/05/12 20:13:48;;;;;;;23.63;7.38;;;;;;;20.25;43.92;99626.75;5081305;28;20038;-92
2022/05/12 20:16:14;;;;;;;16.52;7.60;;;;;;;20.23;44.80;99638.00;5081246;28;20051;-93
2022/05/12 20:18:39;;;;;;;20.15;6.95;;;;;;;20.15;44.81;99649.75;5064341;28;20485;-94
2022/05/12 20:21:06;;;;;;;22.17;7.22;;;;;;;19.88;45.79;99629.91;5081633;28;20012;-92
2022/05/12 20:23:31;;;;;;;41.03;8.75;;;;;;;19.77;45.89;99628.63;5064369;28;20023;-92
2022/05/12 20:25:57;;;;;;;17.73;7.22;;;;;;;19.81;45.80;99637.78;5063995;28;20030;-92
2022/05/12 20:28:22;;;;;;;19.98;6.90;;;;;;;19.67;45.43;99623.44;5063966;28;20016;-92
2022/05/12 20:30:48;;;;;;;20.35;7.10;;;;;;;19.87;44.82;99646.63;5064172;28;20047;-92
2022/05/12 20:33:14;;;;;;;15.00;6.40;;;;;;;19.67;46.08;99628.91;5063921;28;20106;-92
2022/05/12 20:35:40;;;;;;;15.52;7.18;;;;;;;19.54;47.01;99628.75;5064199;28;20024;-92
2022/05/12 20:38:06;;;;;;;17.15;7.05;;;;;;;19.47;46.58;99622.19;5063769;28;20072;-92
2022/05/12 20:40:32;;;;;;;19.63;7.47;;;;;;;19.38;47.05;99628.47;5063852;28;20525;-92
2022/05/12 20:42:57;;;;;;;18.23;7.88;;;;;;;19.35;47.88;99631.81;5062462;28;20023;-92
2022/05/12 20:48:11;;;;;;;14.88;6.47;;;;;;;19.29;47.94;99635.81;5070104;28;20093;-92
2022/05/12 20:50:37;;;;;;;16.42;6.07;;;;;;;19.24;47.49;99621.56;5063545;28;20035;-92
2022/05/12 20:53:03;;;;;;;11.75;6.07;;;;;;;19.18;47.39;99613.50;5063438;28;20027;-92
2022/05/12 20:55:29;;;;;;;12.98;6.47;;;;;;;19.22;47.51;99626.53;5063584;28;20030;-92
2022/05/12 20:57:54;;;;;;;12.27;5.80;;;;;;;19.19;47.50;99619.75;5063669;28;20027;-92
2022/05/12 21:00:20;;;;;;;16.52;5.78;;;;;;;19.16;47.52;99620.41;5063565;28;20023;-93
2022/05/12 21:02:46;;;;;;;18.05;6.20;;;;;;;19.12;47.88;99628.44;5063310;28;20027;-92
2022/05/12 21:05:11;;;;;;;13.93;5.25;;;;;;;19.11;47.78;99618.66;5080558;28;20028;-92
2022/05/12 21:07:37;;;;;;;12.05;5.53;;;;;;;18.97;47.94;99607.06;5079282;28;20065;-92
2022/05/12 21:10:03;;;;;;;14.90;6.65;;;;;;;18.83;49.03;99609.91;5059930;28;20043;-92
2022/05/12 21:12:29;;;;;;;10.95;5.40;;;;;;;18.92;48.45;99618.13;5060360;28;20032;-92
2022/05/12 21:14:54;;;;;;;15.20;5.65;;;;;;;18.81;48.96;99625.00;5077833;28;20027;-92
2022/05/12 21:17:22;;;;;;;25.70;7.72;;;;;;;18.60;49.07;99598.28;5079785;28;20064;-92
2022/05/12 21:19:48;;;;;;;14.77;5.90;;;;;;;18.78;49.06;99629.16;5063659;28;20573;-92
2022/05/12 21:22:13;;;;;;;14.63;5.72;;;;;;;18.67;48.27;99612.25;5063169;28;20106;-93
2022/05/12 21:24:39;;;;;;;12.40;5.57;;;;;;;18.61;48.99;99599.88;5079836;28;20020;-92
2022/05/12 21:27:04;;;;;;;15.63;5.80;;;;;;;18.74;48.52;99615.34;5079936;28;20054;-92
2022/05/12 21:29:30;;;;;;;15.30;5.82;;;;;;;18.66;49.89;99620.75;5063024;28;20032;-91
2022/05/12 21:31:56;;;;;;;10.63;4.95;;;;;;;18.60;48.63;99601.00;5079459;28;20043;-92
2022/05/12 21:34:21;;;;;;;12.80;5.30;;;;;;;18.46;48.26;99592.94;5062950;28;20023;-92
2022/05/12 21:36:47;;;;;;;11.32;5.35;;;;;;;18.45;50.65;99613.16;5079754;28;20051;-92
2022/05/12 21:39:13;;;;;;;14.65;4.85;;;;;;;18.51;48.94;99619.25;5063215;28;20118;-92
2022/05/12 21:41:39;;;;;;;14.30;5.00;;;;;;;18.19;50.13;99593.94;5062818;28;20028;-92
2022/05/12 21:44:06;;;;;;;11.65;5.20;;;;;;;18.24;50.96;99610.19;5059302;28;20429;-92
2022/05/12 21:46:31;;;;;;;5.75;4.40;;;;;;;18.18;51.21;99609.50;5059518;28;20495;-92
2022/05/12 21:48:57;;;;;;;9.27;4.80;;;;;;;18.13;51.17;99606.91;5059005;28;20020;-93
2022/05/12 21:51:22;;;;;;;12.05;5.03;;;;;;;18.04;51.79;99613.44;5059399;28;20028;-92
2022/05/12 21:53:49;;;;;;;11.48;4.93;;;;;;;17.96;52.17;99609.53;5058903;28;20040;-92
2022/05/12 21:56:17;;;;;;;12.65;4.88;;;;;;;17.86;52.33;99605.16;5059356;28;20035;-92
2022/05/12 22:01:29;;;;;;;13.05;5.60;;;;;;;17.73;51.97;99603.28;5064733;28;20039;-92
2022/05/12 22:03:56;;;;;;;9.50;4.03;;;;;;;17.64;52.55;99600.50;5058950;28;20036;-92
2022/05/12 22:06:23;;;;;;;7.95;4.43;;;;;;;17.65;52.64;99620.38;5092601;28;20028;-93
2022/05/12 22:08:49;;;;;;;12.50;4.40;;;;;;;17.51;52.41;99602.16;5059443;28;20409;-92
2022/05/12 22:11:15;;;;;;;8.32;4.47;;;;;;;17.45;52.64;99600.69;5075495;28;20020;-92
2022/05/12 22:13:41;;;;;;;9.85;4.32;;;;;;;17.38;52.63;99592.94;5058763;28;20032;-93
2022/05/12 22:16:07;;;;;;;8.45;3.97;;;;;;;17.30;52.84;99590.16;5043084;28;20038;-95
2022/05/12 22:18:33;;;;;;;10.45;4.63;;;;;;;17.37;52.86;99598.72;5043423;28;20024;-96
2022/05/12 22:21:00;;;;;;;9.43;4.50;;;;;;;17.34;52.70;99581.06;5042480;28;20031;-95
2022/05/12 22:23:26;;;;;;;9.70;4.65;;;;;;;17.40;52.73;99594.56;5059880;28;20031;-94
2022/05/12 22:25:52;;;;;;;8.43;4.05;;;;;;;17.34;53.25;99600.09;5059801;28;20461;-95
2022/05/12 22:28:18;;;;;;;12.95;4.55;;;;;;;17.30;53.29;99607.28;5058660;28;20115;-95